Time;durP1;ratioP1;P1;durP2;ratioP2;P2;SDS_P1;SDS_P2;PMS_P1;PMS_P2;Temp;Humidity;BMP_temperature;BMP_pressure;BME280_temperature;BME280_humidity;BME280_pressure;Samples;Min_cycle;Max_cycle;Signal;HPM_P1;HPM_P2
2022/10/17 00:00:57;;;;;;;148.05;62.13;;;16.40;99.90;;;;;;6106469;23;20017;-92
2022/10/17 00:03:24;;;;;;;170.18;65.32;;;16.40;99.90;;;;;;6106284;23;20488;-93
2022/10/17 00:05:51;;;;;;;161.68;63.22;;;16.40;99.90;;;;;;6106188;23;20092;-93
2022/10/17 00:08:21;;;;;;;143.60;57.55;;;16.40;99.90;;;;;;6106714;23;20050;-92
2022/10/17 00:11:02;;;;;;;143.88;57.55;;;16.40;99.90;;;;;;6106334;23;20072;-92
2022/10/17 00:13:30;;;;;;;147.27;56.88;;;16.40;99.90;;;;;;6165995;23;20014;-92
2022/10/17 00:15:57;;;;;;;150.93;59.03;;;16.30;99.90;;;;;;6166177;23;20005;-92
2022/10/17 00:18:24;;;;;;;161.95;63.08;;;16.30;99.90;;;;;;6166392;23;20012;-92
2022/10/17 00:20:51;;;;;;;148.38;56.63;;;16.30;99.90;;;;;;6165793;23;20020;-92
2022/10/17 00:23:18;;;;;;;151.05;59.58;;;16.30;99.90;;;;;;6165833;23;20055;-92
2022/10/17 00:25:45;;;;;;;148.45;60.72;;;16.30;99.90;;;;;;6166319;23;20005;-92
2022/10/17 00:28:13;;;;;;;157.68;59.03;;;16.30;99.90;;;;;;6165942;23;20035;-93
2022/10/17 00:30:43;;;;;;;161.07;60.60;;;16.30;99.90;;;;;;6165882;23;20005;-91
2022/10/17 00:33:10;;;;;;;165.63;64.70;;;16.20;99.90;;;;;;6165785;23;20008;-93
2022/10/17 00:35:36;;;;;;;166.82;60.92;;;16.20;99.90;;;;;;6166081;23;20435;-92
2022/10/17 00:38:03;;;;;;;165.23;60.90;;;16.20;99.90;;;;;;6165739;23;20008;-92
2022/10/17 00:40:30;;;;;;;162.40;60.88;;;16.20;99.90;;;;;;6165595;23;20036;-92
2022/10/17 00:42:56;;;;;;;146.25;58.40;;;16.10;99.90;;;;;;6165962;23;20004;-93
2022/10/17 00:45:28;;;;;;;150.45;56.55;;;16.10;99.90;;;;;;6165936;23;20008;-94
2022/10/17 00:48:00;;;;;;;119.68;52.03;;;16.00;99.90;;;;;;6173748;23;20020;-92
2022/10/17 00:50:28;;;;;;;142.13;55.78;;;15.90;99.90;;;;;;6190502;23;20362;-92
2022/10/17 00:53:00;;;;;;;132.20;52.28;;;15.80;99.90;;;;;;6190888;23;20036;-92
2022/10/17 00:55:32;;;;;;;137.15;53.90;;;15.70;99.90;;;;;;6190425;23;20008;-92
2022/10/17 00:58:03;;;;;;;125.70;49.13;;;15.70;99.90;;;;;;6190539;23;20062;-92
2022/10/17 01:00:30;;;;;;;121.25;49.17;;;15.60;99.90;;;;;;6190518;23;20476;-92
2022/10/17 01:03:00;;;;;;;129.85;52.13;;;15.60;99.90;;;;;;6190698;23;20091;-92
2022/10/17 01:05:28;;;;;;;123.07;51.13;;;15.60;99.90;;;;;;6190355;23;20005;-93
2022/10/17 01:07:55;;;;;;;116.68;50.33;;;15.50;99.90;;;;;;6190563;23;20008;-91
2022/10/17 01:10:28;;;;;;;141.23;54.85;;;15.50;99.90;;;;;;6190366;23;20410;-92
2022/10/17 01:13:11;;;;;;;138.25;54.88;;;15.50;99.90;;;;;;6190746;23;20016;-92
2022/10/17 01:15:53;;;;;;;143.73;56.53;;;15.60;99.90;;;;;;6190437;23;20004;-93
2022/10/17 01:19:01;;;;;;;144.55;57.47;;;15.60;99.90;;;;;;6190409;23;20009;-92
2022/10/17 01:22:04;;;;;;;116.47;48.45;;;15.60;99.90;;;;;;6204923;23;20016;-91
2022/10/17 01:25:04;;;;;;;96.88;42.78;;;15.40;99.90;;;;;;6159268;23;20009;-92
2022/10/17 01:28:08;;;;;;;108.68;44.13;;;15.30;99.90;;;;;;6190348;23;20008;-92
2022/10/17 01:31:02;;;;;;;105.28;41.92;;;15.10;99.90;;;;;;6190270;23;20019;-92
2022/10/17 01:33:45;;;;;;;147.65;48.42;;;15.00;99.90;;;;;;6190515;23;20015;-92
2022/10/17 01:36:37;;;;;;;231.10;53.42;;;15.00;99.90;;;;;;6190619;23;20347;-92
2022/10/17 01:39:12;;;;;;;180.68;48.85;;;14.90;99.90;;;;;;6190486;23;20008;-92
2022/10/17 01:41:58;;;;;;;117.63;40.33;;;14.90;99.90;;;;;;6190325;23;20016;-92
2022/10/17 01:44:47;;;;;;;298.17;54.33;;;14.80;99.90;;;;;;6190331;23;20088;-92
2022/10/17 01:47:19;;;;;;;274.42;52.90;;;14.80;99.90;;;;;;6195031;23;20446;-92
2022/10/17 01:49:50;;;;;;;193.98;47.20;;;14.70;99.90;;;;;;6195608;23;20445;-92
2022/10/17 01:52:43;;;;;;;119.55;43.13;;;14.60;99.90;;;;;;6195432;23;20004;-91
2022/10/17 01:55:31;;;;;;;124.93;41.78;;;14.60;99.90;;;;;;6195014;22;20015;-92
2022/10/17 01:58:23;;;;;;;117.28;42.85;;;14.60;99.90;;;;;;6195282;23;20012;-91
2022/10/17 02:00:53;;;;;;;147.73;42.95;;;14.50;99.90;;;;;;6194666;23;20020;-92
2022/10/17 02:03:21;;;;;;;240.23;47.45;;;14.50;99.90;;;;;;6195336;23;20488;-92
2022/10/17 02:05:48;;;;;;;264.85;50.20;;;14.50;99.90;;;;;;6195290;23;20004;-91
2022/10/17 02:08:39;;;;;;;233.35;46.60;;;14.40;99.90;;;;;;6195380;23;20371;-93
2022/10/17 02:11:18;;;;;;;450.48;56.03;;;14.40;99.90;;;;;;6195855;23;20008;-92
2022/10/17 02:14:00;;;;;;;428.88;53.75;;;14.40;99.90;;;;;;6195783;23;20018;-92
2022/10/17 02:17:02;;;;;;;222.38;42.20;;;14.40;99.90;;;;;;6195753;23;20012;-92
2022/10/17 02:19:50;;;;;;;375.50;52.95;;;14.40;99.90;;;;;;6195652;23;20434;-93
2022/10/17 02:22:53;;;;;;;365.42;49.30;;;14.30;99.90;;;;;;6195174;23;20385;-92
2022/10/17 02:25:58;;;;;;;296.38;47.47;;;14.40;99.90;;;;;;6105708;23;20149;-91
2022/10/17 02:28:40;;;;;;;442.88;57.25;;;14.30;99.90;;;;;;6131171;23;20463;-92
2022/10/17 02:31:16;;;;;;;291.27;43.75;;;14.30;99.90;;;;;;6156469;23;20088;-91
2022/10/17 02:33:58;;;;;;;165.93;40.95;;;14.30;99.90;;;;;;6156236;23;20020;-92
2022/10/17 02:36:35;;;;;;;509.52;56.90;;;14.30;99.90;;;;;;6156203;23;20096;-94
2022/10/17 02:39:05;;;;;;;487.17;59.22;;;14.30;99.90;;;;;;6156279;23;20092;-92
2022/10/17 02:41:37;;;;;;;367.60;54.05;;;14.30;99.90;;;;;;6156033;23;20444;-93
2022/10/17 02:44:05;;;;;;;228.68;49.50;;;14.30;99.90;;;;;;6156256;23;20029;-92
2022/10/17 02:46:35;;;;;;;306.92;51.42;;;14.30;99.90;;;;;;6156205;23;20064;-92
2022/10/17 02:49:27;;;;;;;224.55;47.63;;;14.30;99.90;;;;;;6129344;23;20101;-93
2022/10/17 02:52:26;;;;;;;314.23;52.65;;;14.30;99.90;;;;;;6126609;23;20097;-93
2022/10/17 02:55:17;;;;;;;400.92;53.67;;;14.30;99.90;;;;;;6102259;23;20045;-93
2022/10/17 02:58:10;;;;;;;621.45;66.25;;;14.40;99.90;;;;;;6102224;23;20010;-92
2022/10/17 03:00:39;;;;;;;637.38;72.35;;;14.40;99.90;;;;;;6102135;23;20025;-94
2022/10/17 03:03:25;;;;;;;284.60;50.80;;;14.30;99.90;;;;;;6208647;23;20088;-92
2022/10/17 03:05:53;;;;;;;319.58;55.60;;;14.30;99.90;;;;;;6191814;23;20032;-92
2022/10/17 03:08:23;;;;;;;450.10;54.90;;;14.40;99.90;;;;;;6167389;23;20342;-93
2022/10/17 03:10:50;;;;;;;570.47;65.95;;;14.40;99.90;;;;;;6191379;23;20009;-92
2022/10/17 03:13:21;;;;;;;507.48;63.78;;;14.40;99.90;;;;;;6166908;23;20069;-92
2022/10/17 03:15:49;;;;;;;400.45;57.15;;;14.40;99.90;;;;;;6191277;23;20008;-92
2022/10/17 03:18:22;;;;;;;507.42;64.82;;;14.40;99.90;;;;;;6166739;23;20018;-92
2022/10/17 03:20:52;;;;;;;405.33;55.13;;;14.30;99.90;;;;;;6167209;23;20099;-92
2022/10/17 03:23:19;;;;;;;312.95;55.10;;;14.40;99.90;;;;;;6191156;23;20346;-91
2022/10/17 03:25:47;;;;;;;516.25;71.85;;;14.30;99.90;;;;;;6166686;23;20005;-93
2022/10/17 03:28:15;;;;;;;404.17;61.20;;;14.30;99.90;;;;;;6191235;23;20020;-93
2022/10/17 03:30:42;;;;;;;274.10;53.30;;;14.30;99.90;;;;;;6166707;23;20047;-93
2022/10/17 03:33:09;;;;;;;262.08;52.53;;;14.30;99.90;;;;;;6191222;23;20015;-91
2022/10/17 03:35:39;;;;;;;333.75;56.28;;;14.30;99.90;;;;;;6166280;23;20083;-92
2022/10/17 03:38:07;;;;;;;179.13;47.65;;;14.30;99.90;;;;;;6191237;23;20083;-93
2022/10/17 03:40:34;;;;;;;397.90;64.53;;;14.30;99.90;;;;;;6166288;23;20017;-92
2022/10/17 03:43:01;;;;;;;312.02;53.45;;;14.30;99.90;;;;;;6191566;23;20008;-92
2022/10/17 03:45:29;;;;;;;485.98;66.40;;;14.30;99.90;;;;;;6167285;23;20009;-92
2022/10/17 03:47:58;;;;;;;354.50;57.80;;;14.20;99.90;;;;;;6175039;23;20450;-92
2022/10/17 03:50:25;;;;;;;417.25;58.90;;;14.20;99.90;;;;;;6166385;23;20012;-93
2022/10/17 03:52:53;;;;;;;349.42;56.33;;;14.10;99.90;;;;;;6167070;23;20016;-92
2022/10/17 03:55:20;;;;;;;488.42;65.97;;;14.20;99.90;;;;;;6167074;23;20035;-93
2022/10/17 03:57:47;;;;;;;491.50;67.53;;;14.10;99.90;;;;;;6167139;23;20009;-91
2022/10/17 04:00:16;;;;;;;442.80;61.38;;;14.20;99.90;;;;;;6191491;23;20016;-93
2022/10/17 04:02:51;;;;;;;436.40;65.25;;;14.20;99.90;;;;;;6169066;23;20012;-92
2022/10/17 04:05:19;;;;;;;481.70;65.63;;;14.30;99.90;;;;;;6166180;23;20028;-92
2022/10/17 04:07:47;;;;;;;701.97;83.10;;;14.30;99.90;;;;;;6166511;23;20422;-93
2022/10/17 04:10:16;;;;;;;438.80;64.90;;;14.40;99.90;;;;;;6166674;23;20016;-93
2022/10/17 04:12:43;;;;;;;752.47;85.55;;;14.40;99.90;;;;;;6166429;23;20024;-91
2022/10/17 04:15:10;;;;;;;631.60;80.03;;;14.40;99.90;;;;;;6166278;23;20501;-93
2022/10/17 04:17:38;;;;;;;678.35;83.30;;;14.50;99.90;;;;;;6166561;23;20007;-92
2022/10/17 04:20:07;;;;;;;339.45;61.25;;;14.50;99.90;;;;;;6191227;23;20013;-92
2022/10/17 04:22:34;;;;;;;399.02;68.80;;;14.60;99.90;;;;;;6168430;23;20043;-93
2022/10/17 04:25:01;;;;;;;532.72;76.13;;;14.60;99.90;;;;;;6191193;23;20004;-94
2022/10/17 04:27:33;;;;;;;507.98;72.15;;;14.60;99.90;;;;;;6192019;23;20008;-93
2022/10/17 04:30:01;;;;;;;395.17;67.85;;;14.60;99.90;;;;;;6166066;23;20009;-92
2022/10/17 04:32:30;;;;;;;551.75;77.63;;;14.60;99.90;;;;;;6166543;23;20035;-94
2022/10/17 04:35:08;;;;;;;552.95;82.43;;;14.60;99.90;;;;;;6167998;23;20040;-92
2022/10/17 04:37:38;;;;;;;462.00;72.35;;;14.70;99.90;;;;;;6190792;23;20012;-93
2022/10/17 04:40:12;;;;;;;412.90;71.18;;;14.70;99.90;;;;;;6191868;23;20435;-93
2022/10/17 04:42:42;;;;;;;265.90;58.15;;;14.70;99.90;;;;;;6190912;23;20012;-92
2022/10/17 04:45:11;;;;;;;492.33;72.55;;;14.70;99.90;;;;;;6191141;23;20010;-93
2022/10/17 04:47:38;;;;;;;399.45;66.95;;;14.80;99.90;;;;;;6191482;23;20091;-92
2022/10/17 04:50:05;;;;;;;391.17;69.95;;;14.70;99.90;;;;;;6190532;23;20004;-93
2022/10/17 04:52:38;;;;;;;503.85;76.65;;;14.80;99.90;;;;;;6191463;23;20012;-93
2022/10/17 04:55:06;;;;;;;333.90;65.95;;;14.80;99.90;;;;;;6190718;23;20398;-92
2022/10/17 04:57:34;;;;;;;491.88;75.07;;;14.90;99.90;;;;;;6190731;23;20005;-92
2022/10/17 05:00:09;;;;;;;348.83;68.85;;;14.90;99.90;;;;;;6192020;23;20008;-93
2022/10/17 05:02:59;;;;;;;628.38;86.07;;;14.90;99.90;;;;;;6195170;23;20013;-91
2022/10/17 05:05:27;;;;;;;323.30;68.45;;;14.90;99.90;;;;;;6190928;23;20019;-92
2022/10/17 05:07:55;;;;;;;334.38;71.13;;;14.90;99.90;;;;;;6190699;23;20035;-92
2022/10/17 05:10:56;;;;;;;707.30;94.93;;;15.00;99.90;;;;;;6191470;23;20019;-92
2022/10/17 05:13:23;;;;;;;380.95;73.80;;;15.00;99.90;;;;;;6191329;23;20015;-93
2022/10/17 05:15:50;;;;;;;485.85;85.65;;;15.00;99.90;;;;;;6192631;23;20039;-92
2022/10/17 05:18:17;;;;;;;292.30;68.57;;;15.00;99.90;;;;;;6190926;23;20037;-92
2022/10/17 05:20:44;;;;;;;285.77;70.55;;;15.10;99.90;;;;;;6190498;23;20020;-91
2022/10/17 05:23:20;;;;;;;283.10;66.82;;;15.20;99.90;;;;;;6190398;23;20008;-93
2022/10/17 05:25:47;;;;;;;369.77;71.07;;;15.20;99.90;;;;;;6190377;23;20011;-92
2022/10/17 05:28:16;;;;;;;569.33;83.90;;;15.30;99.90;;;;;;6190349;23;20036;-93
2022/10/17 05:30:43;;;;;;;492.23;73.55;;;15.20;99.90;;;;;;6190459;23;20051;-91
2022/10/17 05:33:10;;;;;;;421.00;75.40;;;15.20;99.90;;;;;;6190465;23;20005;-91
2022/10/17 05:35:37;;;;;;;406.15;70.22;;;15.30;99.90;;;;;;6190260;23;20509;-90
2022/10/17 05:38:20;;;;;;;493.38;75.82;;;15.40;99.90;;;;;;6190442;23;20078;-92
2022/10/17 05:40:49;;;;;;;474.42;75.95;;;15.40;99.90;;;;;;6208694;23;20024;-91
2022/10/17 05:43:15;;;;;;;461.92;69.70;;;15.50;99.90;;;;;;6190186;23;20350;-91
2022/10/17 05:45:43;;;;;;;257.55;63.45;;;15.50;99.90;;;;;;6190677;23;20052;-92
2022/10/17 05:48:20;;;;;;;463.00;76.88;;;15.60;99.90;;;;;;6191333;23;20027;-92
2022/10/17 05:50:58;;;;;;;278.30;60.78;;;15.60;99.90;;;;;;6190253;23;20059;-91
2022/10/17 05:53:37;;;;;;;456.15;68.43;;;15.70;99.90;;;;;;6190641;23;20012;-92
2022/10/17 05:56:11;;;;;;;463.45;65.53;;;15.80;99.90;;;;;;6190572;23;20008;-91
2022/10/17 05:58:44;;;;;;;308.35;58.08;;;15.90;99.90;;;;;;6190166;23;20443;-93
2022/10/17 06:01:41;;;;;;;318.20;58.97;;;16.00;99.90;;;;;;6192724;23;20103;-92
2022/10/17 06:04:14;;;;;;;164.30;51.45;;;16.20;99.90;;;;;;6191808;23;20016;-93
2022/10/17 06:06:42;;;;;;;187.07;53.63;;;16.30;99.90;;;;;;6192370;23;20012;-93
2022/10/17 06:09:10;;;;;;;170.85;54.33;;;16.50;99.90;;;;;;6192242;23;20008;-91
2022/10/17 06:11:47;;;;;;;274.33;66.03;;;16.60;99.90;;;;;;6192871;23;20015;-91
2022/10/17 06:14:15;;;;;;;;;;;16.80;99.90;;;;;;6193638;23;20020;-91
2022/10/17 06:16:42;;;;;;;162.43;54.30;;;17.00;99.90;;;;;;6191991;23;20236;-93
2022/10/17 06:19:10;;;;;;;119.65;50.10;;;17.10;99.90;;;;;;6192126;23;20032;-92
2022/10/17 06:21:56;;;;;;;106.35;46.97;;;17.40;99.90;;;;;;6191920;23;20021;-93
2022/10/17 06:24:25;;;;;;;104.32;45.90;;;17.60;99.90;;;;;;6192455;23;20544;-92
2022/10/17 06:41:49;;;;;;;68.00;41.42;;;19.90;99.90;;;;;;6255018;22;20031;-93
2022/10/17 07:58:36;;;;;;;58.22;38.38;;;21.40;99.90;;;;;;6252044;22;20024;-93
2022/10/17 08:07:18;;;;;;;50.80;35.70;;;21.50;99.90;;;;;;6245588;22;20027;-94
2022/10/17 08:10:12;;;;;;;51.13;35.28;;;21.40;99.90;;;;;;6200584;23;20019;-93
2022/10/17 08:12:48;;;;;;;46.83;34.05;;;21.60;99.90;;;;;;6198060;23;20048;-93
2022/10/17 08:15:15;;;;;;;49.55;33.60;;;21.60;99.90;;;;;;6197081;23;20012;-92
2022/10/17 08:17:50;;;;;;;49.38;34.67;;;21.60;99.90;;;;;;6199342;23;20000;-92
2022/10/17 08:20:17;;;;;;;53.35;34.97;;;21.80;99.90;;;;;;6199423;23;20012;-92
2022/10/17 08:22:54;;;;;;;49.38;34.88;;;21.90;99.90;;;;;;6201915;23;20011;-93
2022/10/17 08:29:16;;;;;;;45.85;34.78;;;21.80;99.90;;;;;;6178009;22;20028;-92
2022/10/17 08:31:46;;;;;;;48.35;34.42;;;21.80;99.90;;;;;;6144777;23;20073;-92
2022/10/17 08:34:28;;;;;;;48.60;34.55;;;21.70;99.90;;;;;;6133749;23;20005;-94
2022/10/17 08:37:14;;;;;;;53.47;37.35;;;21.90;99.90;;;;;;6135663;23;20041;-93
2022/10/17 08:43:44;;;;;;;45.92;32.45;;;21.70;99.90;;;;;;6243058;22;20031;-93
2022/10/17 08:50:19;;;;;;;40.55;30.40;;;21.20;99.90;;;;;;6250763;22;20034;-92
2022/10/17 10:31:04;;;;;;;30.92;27.58;;;22.90;99.90;;;;;;6254402;22;20024;-93
2022/10/17 10:34:16;;;;;;;32.65;28.08;;;22.50;99.90;;;;;;6234782;23;20027;-94
2022/10/17 10:37:40;;;;;;;30.17;27.08;;;22.60;99.90;;;;;;6123298;23;20018;-95
2022/10/17 10:40:33;;;;;;;29.98;26.17;;;22.80;99.90;;;;;;6083397;23;20009;-93
2022/10/17 10:52:31;;;;;;;33.00;28.67;;;22.60;99.90;;;;;;6246536;22;20020;-94
2022/10/17 10:59:17;;;;;;;34.90;29.13;;;22.70;99.90;;;;;;6214113;22;20121;-92
2022/10/17 13:58:17;;;;;;;19.98;18.27;;;21.80;99.90;;;;;;6242767;22;20032;-92
2022/10/17 14:09:56;;;;;;;23.25;21.08;;;21.60;99.90;;;;;;6231673;22;20039;-93
2022/10/17 14:12:29;;;;;;;23.15;21.02;;;21.60;99.90;;;;;;6200386;23;20040;-92
2022/10/17 14:15:07;;;;;;;;;;;;;;;;;;;;;
2022/10/17 14:18:29;;;;;;;28.33;25.42;;;21.60;99.90;;;;;;6245955;23;20357;-93
2022/10/17 14:21:42;;;;;;;33.33;26.30;;;21.50;99.90;;;;;;6185011;23;20013;-92
2022/10/17 14:24:35;;;;;;;31.42;27.70;;;21.50;99.90;;;;;;6175392;23;20019;-92
2022/10/17 14:27:46;;;;;;;30.00;26.85;;;21.50;99.90;;;;;;6169929;23;20009;-93
2022/10/17 14:30:32;;;;;;;30.13;26.83;;;21.30;99.90;;;;;;6192437;23;20008;-91
2022/10/17 14:33:30;;;;;;;30.73;27.38;;;21.20;99.90;;;;;;6168089;23;20004;-94
2022/10/17 14:36:12;;;;;;;34.25;28.10;;;21.30;99.90;;;;;;6167194;23;20453;-92
2022/10/17 14:39:03;;;;;;;29.90;26.75;;;21.30;99.90;;;;;;6168098;23;20009;-92
2022/10/17 14:41:53;;;;;;;31.15;27.48;;;21.20;99.90;;;;;;6168695;23;20021;-92
2022/10/17 14:44:40;;;;;;;33.47;29.38;;;21.40;99.90;;;;;;6098699;23;20014;-92
2022/10/17 14:47:23;;;;;;;32.00;28.38;;;21.40;99.90;;;;;;6074311;23;20030;-92
2022/10/17 14:50:01;;;;;;;35.40;29.13;;;21.30;99.90;;;;;;6074826;23;20014;-93
2022/10/17 14:52:32;;;;;;;32.47;28.77;;;21.30;99.90;;;;;;6076203;23;20007;-92
2022/10/17 14:55:14;;;;;;;35.90;29.52;;;21.20;99.90;;;;;;6099692;23;20014;-91
2022/10/17 14:57:45;;;;;;;35.38;29.05;;;21.10;99.90;;;;;;6099566;23;20011;-91
2022/10/17 15:00:22;;;;;;;36.20;30.13;;;21.10;99.90;;;;;;6076350;23;20014;-92
2022/10/17 15:02:51;;;;;;;30.42;26.42;;;21.00;99.90;;;;;;6076627;23;20018;-92
2022/10/17 15:05:19;;;;;;;31.98;28.08;;;20.90;99.90;;;;;;6075273;23;20003;-92
2022/10/17 15:07:46;;;;;;;34.67;27.98;;;20.90;99.90;;;;;;6073771;23;20026;-91
2022/10/17 15:10:40;;;;;;;31.40;27.15;;;20.90;99.90;;;;;;6074560;23;20045;-91
2022/10/17 15:13:08;;;;;;;;;;;20.80;99.90;;;;;;6049148;23;20014;-92
2022/10/17 15:15:35;;;;;;;32.25;28.13;;;20.60;99.90;;;;;;6142995;23;19910;-92
2022/10/17 15:18:03;;;;;;;35.90;27.70;;;20.50;99.90;;;;;;6191440;23;20476;-92
2022/10/17 15:20:33;;;;;;;32.95;27.77;;;20.40;99.90;;;;;;6168703;23;20042;-92
2022/10/17 15:23:01;;;;;;;35.60;27.45;;;20.40;99.90;;;;;;6195893;23;20391;-92
2022/10/17 15:25:30;;;;;;;41.22;30.50;;;20.40;99.90;;;;;;6175789;23;20000;-91
2022/10/17 15:28:01;;;;;;;38.35;29.92;;;20.30;99.90;;;;;;6200900;23;20024;-93
2022/10/17 15:30:35;;;;;;;37.85;28.88;;;20.30;99.90;;;;;;6176203;23;20031;-92
2022/10/17 15:33:03;;;;;;;42.38;29.83;;;20.20;99.90;;;;;;6171348;23;20009;-93
2022/10/17 15:35:33;;;;;;;38.13;29.27;;;20.20;99.90;;;;;;6168852;23;20084;-94
2022/10/17 15:38:14;;;;;;;38.45;27.60;;;20.20;99.90;;;;;;6167478;23;20028;-94
2022/10/17 15:40:41;;;;;;;38.40;28.27;;;20.10;99.90;;;;;;6167378;23;20087;-93
2022/10/17 15:43:17;;;;;;;45.25;31.60;;;20.00;99.90;;;;;;6167115;23;20495;-94
2022/10/17 15:45:47;;;;;;;43.45;29.13;;;19.90;99.90;;;;;;6167758;23;20051;-92
2022/10/17 15:48:30;;;;;;;44.75;29.30;;;19.90;99.90;;;;;;6166944;23;20012;-93
2022/10/17 15:50:57;;;;;;;47.75;29.75;;;19.80;99.90;;;;;;6166442;23;20032;-93
2022/10/17 15:53:26;;;;;;;45.38;29.45;;;19.80;99.90;;;;;;6191912;23;20000;-93
2022/10/17 15:55:53;;;;;;;45.95;30.00;;;19.70;99.90;;;;;;6192155;23;20017;-93
2022/10/17 15:58:22;;;;;;;39.80;28.50;;;19.70;99.90;;;;;;6167587;23;20000;-93
2022/10/17 16:00:49;;;;;;;42.25;29.50;;;19.60;99.90;;;;;;6163275;23;20040;-93
2022/10/17 16:03:49;;;;;;;45.53;30.27;;;19.60;99.90;;;;;;6168398;23;20009;-94
2022/10/17 16:06:42;;;;;;;54.75;32.13;;;19.50;99.90;;;;;;6118303;23;20010;-93
2022/10/17 16:09:23;;;;;;;43.95;30.90;;;19.50;99.90;;;;;;6101673;23;20073;-94
2022/10/17 16:12:26;;;;;;;48.33;30.88;;;19.40;99.90;;;;;;6102181;23;20018;-93
2022/10/17 16:15:13;;;;;;;54.67;32.45;;;19.40;99.90;;;;;;6050925;23;20011;-95
2022/10/17 16:21:43;;;;;;;53.50;34.15;;;19.30;99.90;;;;;;6192467;22;20021;-94
2022/10/17 16:24:11;;;;;;;55.65;32.67;;;19.20;99.90;;;;;;6108719;23;20353;-93
2022/10/17 16:26:39;;;;;;;50.97;33.00;;;19.20;99.90;;;;;;6138961;23;20013;-92
2022/10/17 16:29:06;;;;;;;59.63;34.80;;;19.10;99.90;;;;;;6160158;23;20531;-93
2022/10/17 16:32:25;;;;;;;;;;;;;;;;;;;;;
2022/10/17 16:50:10;;;;;;;57.20;34.70;;;18.80;99.90;;;;;;6231545;22;20298;-92
2022/10/17 16:52:46;;;;;;;61.75;35.63;;;18.80;99.90;;;;;;6191223;23;20009;-92
2022/10/17 16:55:30;;;;;;;60.28;35.05;;;18.80;99.90;;;;;;6186805;23;20088;-92
2022/10/17 16:58:14;;;;;;;63.35;37.00;;;18.70;99.90;;;;;;6188586;23;20009;-93
2022/10/17 17:00:53;;;;;;;68.80;36.58;;;18.70;99.90;;;;;;6187482;23;20020;-94
2022/10/17 17:03:36;;;;;;;66.10;37.67;;;18.60;99.90;;;;;;6188206;23;20012;-91
2022/10/17 17:06:26;;;;;;;;;;;;;;;;;;;;;
2022/10/17 17:09:00;;;;;;;68.72;38.90;;;18.60;99.90;;;;;;6186669;23;20012;-92
2022/10/17 17:11:32;;;;;;;65.10;36.00;;;18.60;99.90;;;;;;6185910;23;20485;-92
2022/10/17 17:14:00;;;;;;;70.22;38.15;;;18.50;99.90;;;;;;6186486;23;20084;-92
2022/10/17 17:16:29;;;;;;;76.10;41.92;;;18.50;99.90;;;;;;6186262;23;20418;-92
2022/10/17 17:19:32;;;;;;;77.15;40.72;;;18.50;99.90;;;;;;6188096;23;20009;-93
2022/10/17 17:22:01;;;;;;;73.32;41.55;;;18.50;99.90;;;;;;6185230;23;20168;-92
2022/10/17 17:25:17;;;;;;;75.00;42.08;;;18.50;99.90;;;;;;6186049;23;20009;-93
2022/10/17 17:29:09;;;;;;;;;;;;;;;;;;;;;
2022/10/17 17:41:54;;;;;;;;;;;18.50;99.90;;;;;;6160919;23;20021;-93
2022/10/17 17:44:33;;;;;;;77.88;39.58;;;18.50;99.90;;;;;;6163707;23;19904;-92
2022/10/17 17:47:18;;;;;;;93.03;43.38;;;18.50;99.90;;;;;;6164511;23;20009;-93
2022/10/17 17:49:47;;;;;;;88.07;43.20;;;18.40;99.90;;;;;;6155891;23;20016;-92
2022/10/17 17:52:17;;;;;;;87.53;44.22;;;18.40;99.90;;;;;;6131204;23;20002;-91
2022/10/17 17:54:43;;;;;;;84.82;45.97;;;18.40;99.90;;;;;;6160009;22;20479;-93
2022/10/17 17:57:11;;;;;;;86.32;46.38;;;18.30;99.90;;;;;;6196075;23;20409;-92
2022/10/17 17:59:39;;;;;;;85.18;44.03;;;18.30;99.90;;;;;;6196749;23;20012;-92
2022/10/17 18:02:10;;;;;;;89.72;44.38;;;18.40;99.90;;;;;;6169110;23;20427;-91
2022/10/17 18:04:49;;;;;;;85.80;43.38;;;18.30;99.90;;;;;;6233372;22;20016;-93
2022/10/17 18:07:16;;;;;;;89.50;46.38;;;18.30;99.90;;;;;;6223358;23;20008;-95
2022/10/17 18:09:43;;;;;;;86.78;47.28;;;18.30;99.90;;;;;;6222680;23;20054;-93
2022/10/17 18:12:10;;;;;;;92.10;48.17;;;18.30;99.90;;;;;;6222755;23;20009;-93
2022/10/17 18:26:11;;;;;;;103.32;51.70;;;18.20;99.90;;;;;;6189426;23;20000;-92
2022/10/17 18:37:57;;;;;;;95.55;47.33;;;18.10;99.90;;;;;;6241988;22;20061;-91
2022/10/17 18:40:35;;;;;;;107.70;50.53;;;18.10;99.90;;;;;;6251882;23;20430;-93
2022/10/17 18:43:59;;;;;;;103.40;51.83;;;18.10;99.90;;;;;;6222668;23;20015;-93
2022/10/17 18:47:22;;;;;;;106.65;52.72;;;18.00;99.90;;;;;;6113866;23;20021;-93
2022/10/17 18:55:34;;;;;;;112.82;55.97;;;18.00;99.90;;;;;;6288021;22;20026;-92
2022/10/17 19:05:13;;;;;;;120.57;57.80;;;18.00;99.90;;;;;;6267178;22;19949;-92
2022/10/17 19:08:42;;;;;;;116.70;55.70;;;18.00;99.90;;;;;;6232215;23;20004;-93
2022/10/17 19:35:00;;;;;;;;;;;;;;;;;;;;;
2022/10/17 19:40:57;;;;;;;129.02;61.22;;;17.70;99.90;;;;;;6249340;23;20031;-94
2022/10/17 19:43:27;;;;;;;126.70;59.33;;;17.70;99.90;;;;;;6223398;23;20004;-93
2022/10/17 19:57:31;;;;;;;;;;;;;;;;;;;;;
2022/10/17 20:17:48;;;;;;;133.23;60.38;;;17.50;99.90;;;;;;6249439;22;20028;-93
2022/10/17 20:20:28;;;;;;;136.15;59.33;;;17.50;99.90;;;;;;6199620;23;20004;-92
2022/10/17 20:22:55;;;;;;;137.10;62.55;;;17.50;99.90;;;;;;6195985;23;20095;-92
2022/10/17 20:25:33;;;;;;;137.98;62.05;;;17.50;99.90;;;;;;6199003;23;20011;-94
2022/10/17 20:28:00;;;;;;;139.02;62.50;;;17.40;99.90;;;;;;6196495;23;20004;-91
2022/10/17 20:30:27;;;;;;;131.70;60.65;;;17.50;99.90;;;;;;6196472;23;20023;-93
2022/10/17 20:32:59;;;;;;;137.90;64.97;;;17.50;99.90;;;;;;6196510;23;20008;-93
2022/10/17 20:35:29;;;;;;;134.38;62.78;;;17.60;99.90;;;;;;6221005;23;20012;-91
2022/10/17 20:37:58;;;;;;;144.93;62.22;;;17.50;99.90;;;;;;6197410;23;20411;-93
2022/10/17 20:40:34;;;;;;;136.75;62.03;;;17.60;99.90;;;;;;6197036;23;20007;-93
2022/10/17 20:43:08;;;;;;;140.90;61.58;;;17.60;99.90;;;;;;6196805;23;20007;-92
2022/10/17 20:45:39;;;;;;;138.15;64.05;;;17.60;99.90;;;;;;6220088;23;20442;-92
2022/10/17 20:48:12;;;;;;;144.55;63.13;;;17.60;99.90;;;;;;6195013;23;20434;-93
2022/10/17 20:50:44;;;;;;;146.68;66.63;;;17.60;99.90;;;;;;6197914;23;20009;-92
2022/10/17 20:53:12;;;;;;;138.52;61.92;;;17.60;99.90;;;;;;6214280;23;20469;-93
2022/10/17 20:55:45;;;;;;;139.85;62.47;;;17.60;99.90;;;;;;6195901;23;20004;-93
2022/10/17 20:58:17;;;;;;;129.98;59.97;;;17.60;99.90;;;;;;6221760;23;20561;-93
2022/10/17 21:00:45;;;;;;;138.75;61.78;;;17.60;99.90;;;;;;6220861;23;20460;-94
2022/10/17 21:03:12;;;;;;;141.93;64.63;;;17.60;99.90;;;;;;6189948;23;20008;-93
2022/10/17 21:05:39;;;;;;;140.10;61.78;;;17.60;99.90;;;;;;6198059;23;20008;-92
2022/10/17 21:08:07;;;;;;;149.23;63.83;;;17.60;99.90;;;;;;6160105;23;20009;-92
2022/10/17 21:10:34;;;;;;;143.60;64.93;;;17.60;99.90;;;;;;6159949;23;20009;-93
2022/10/17 21:13:01;;;;;;;154.50;63.85;;;17.60;99.90;;;;;;6135222;23;20001;-94
2022/10/17 21:15:28;;;;;;;158.00;65.45;;;17.60;99.90;;;;;;6160911;23;20017;-93
2022/10/17 21:17:54;;;;;;;150.77;67.88;;;17.60;99.90;;;;;;6138086;23;20013;-93
2022/10/17 21:20:29;;;;;;;163.82;68.85;;;17.60;99.90;;;;;;6136733;23;20016;-93
2022/10/17 22:42:35;;;;;;;162.35;66.43;;;17.10;99.90;;;;;;6117637;22;20039;-92
